createdAt,value
2023-05-20T00:03:57.790Z,4.12
2023-05-20T00:08:00.611Z,4.12
2023-05-20T00:14:04.870Z,4.11
2023-05-20T00:18:07.921Z,4.11
2023-05-20T00:20:09.277Z,4.11
2023-05-20T00:24:12.394Z,4.11
2023-05-20T00:26:14.179Z,4.11
2023-05-20T00:30:17.301Z,4.11
2023-05-20T00:34:20.518Z,4.11
2023-05-20T00:40:24.469Z,4.11
2023-05-20T00:46:29.039Z,4.11
2023-05-20T00:50:31.871Z,4.1
2023-05-20T00:56:36.078Z,4.11
2023-05-20T01:00:38.848Z,4.1
2023-05-20T01:02:39.850Z,4.11
2023-05-20T01:06:42.389Z,4.1
2023-05-20T01:10:45.246Z,4.1
2023-05-20T01:12:47.141Z,4.1
2023-05-20T01:16:50.059Z,4.1
2023-05-20T01:20:53.081Z,4.1
2023-05-20T01:22:54.912Z,4.1
2023-05-20T01:26:57.665Z,4.1
2023-05-20T01:28:58.980Z,4.1
2023-05-20T01:33:02.145Z,4.1
2023-05-20T01:39:06.072Z,4.1
2023-05-20T01:45:11.265Z,4.1
2023-05-20T01:49:14.228Z,4.1
2023-05-20T01:53:17.000Z,4.1
2023-05-20T01:55:18.095Z,4.1
2023-05-20T01:59:19.963Z,4.1
2023-05-20T02:01:21.338Z,4.1
2023-05-20T02:05:33.252Z,4.09
2023-05-20T02:09:27.706Z,4.09
2023-05-20T02:11:29.190Z,4.1
2023-05-20T02:15:31.016Z,4.09
2023-05-20T02:21:36.461Z,4.09
2023-05-20T02:27:40.916Z,4.09
2023-05-20T02:31:44.233Z,4.09
2023-05-20T02:37:49.047Z,4.09
2023-05-20T02:41:52.606Z,4.09
2023-05-20T02:43:54.009Z,4.09
2023-05-20T02:47:56.318Z,4.09
2023-05-20T02:51:58.715Z,4.09
2023-05-20T02:53:59.859Z,4.09
2023-05-20T02:58:02.923Z,4.09
2023-05-20T03:04:07.501Z,4.09
2023-05-20T03:10:11.425Z,4.09
2023-05-20T03:14:13.472Z,4.08
2023-05-20T03:20:18.053Z,4.08
2023-05-20T03:24:20.736Z,4.09
2023-05-20T03:26:21.801Z,4.08
2023-05-20T03:30:24.872Z,4.08
2023-05-20T03:34:27.497Z,4.08
2023-05-20T03:36:28.483Z,4.08
2023-05-20T03:40:39.921Z,4.08
2023-05-20T03:46:35.839Z,4.08
2023-05-20T03:52:40.741Z,4.08
2023-05-20T03:56:44.085Z,4.08
2023-05-20T04:02:47.464Z,4.08
2023-05-20T04:06:49.926Z,4.08
2023-05-20T04:08:51.089Z,4.08
2023-05-20T04:12:53.775Z,4.08
2023-05-20T04:18:58.743Z,4.08
2023-05-20T04:23:01.015Z,4.08
2023-05-20T04:27:04.123Z,4.08
2023-05-20T04:29:05.587Z,4.07
2023-05-20T04:33:08.868Z,4.07
2023-05-20T04:35:10.513Z,4.07
2023-05-20T04:37:11.474Z,4.07
2023-05-20T04:39:12.930Z,4.07
2023-05-20T04:45:16.483Z,4.07
2023-05-20T04:51:21.192Z,4.07
2023-05-20T04:55:23.671Z,4.07
2023-05-20T05:01:27.694Z,4.07
2023-05-20T05:05:29.653Z,4.07
2023-05-20T05:07:31.045Z,4.07
2023-05-20T05:11:33.994Z,4.06
2023-05-20T05:15:36.855Z,4.07
2023-05-20T05:17:38.560Z,4.06
2023-05-20T05:21:40.658Z,4.07
2023-05-20T05:27:44.679Z,4.07
2023-05-20T05:33:48.988Z,4.08
2023-05-20T05:37:51.737Z,4.08
2023-05-20T05:43:55.039Z,4.08
2023-05-20T05:47:57.310Z,4.08
2023-05-20T05:49:58.796Z,4.09
2023-05-20T05:54:01.731Z,4.09
2023-05-20T05:58:03.985Z,4.1
2023-05-20T06:00:05.351Z,4.1
2023-05-20T06:04:07.419Z,4.11
2023-05-20T06:06:09.121Z,4.11
2023-05-20T06:10:12.093Z,4.11
2023-05-20T06:14:14.552Z,4.12
2023-05-20T06:16:15.460Z,4.12
2023-05-20T06:18:16.965Z,4.14
2023-05-20T06:20:18.435Z,4.14
2023-05-20T06:23:03.616Z,4.14
2023-05-20T06:27:06.058Z,4.15
2023-05-20T06:31:08.564Z,4.16
2023-05-20T06:37:13.216Z,4.16
2023-05-20T06:41:15.795Z,4.16
2023-05-20T06:43:18.298Z,4.17
2023-05-20T06:47:20.262Z,4.17
2023-05-20T06:51:22.129Z,4.17
2023-05-20T06:53:23.076Z,4.18
2023-05-20T06:57:26.400Z,4.18
2023-05-20T07:03:29.745Z,4.18
2023-05-20T07:09:33.097Z,4.19
2023-05-20T07:13:35.436Z,4.19
2023-05-20T07:19:39.533Z,4.19
2023-05-20T07:23:41.844Z,4.19
2023-05-20T07:25:43.027Z,4.19
2023-05-20T07:29:45.796Z,4.19
2023-05-20T07:33:49.308Z,4.19
2023-05-20T07:35:50.313Z,4.19
2023-05-20T07:39:53.216Z,4.2
2023-05-20T07:45:58.257Z,4.2
2023-05-20T07:52:03.070Z,4.2
2023-05-20T07:56:04.350Z,4.2
2023-05-20T08:02:08.314Z,4.2
2023-05-20T08:08:12.856Z,4.2
2023-05-20T08:12:15.426Z,4.19
2023-05-20T08:18:18.382Z,4.19
2023-05-20T08:22:20.282Z,4.19
2023-05-20T08:28:24.435Z,4.19
2023-05-20T08:32:26.982Z,4.18
2023-05-20T08:34:28.543Z,4.18
2023-05-20T08:38:31.515Z,4.18
2023-05-20T08:44:35.284Z,4.18
2023-05-20T08:50:39.715Z,4.19
2023-05-20T08:54:42.439Z,4.18
2023-05-20T09:00:47.676Z,4.18
2023-05-20T09:04:50.037Z,4.17
2023-05-20T09:06:50.923Z,4.18
2023-05-20T09:10:52.744Z,4.18
2023-05-20T09:14:55.214Z,4.17
2023-05-20T09:16:56.338Z,4.17
2023-05-20T09:20:58.933Z,4.17
2023-05-20T09:27:04.479Z,4.17
2023-05-20T09:33:09.097Z,4.17
2023-05-20T09:37:12.176Z,4.17
2023-05-20T09:43:16.160Z,4.17
2023-05-20T09:47:18.366Z,4.17
2023-05-20T09:49:19.748Z,4.17
2023-05-20T09:53:30.438Z,4.17
2023-05-20T09:57:25.080Z,4.17
2023-05-20T09:59:26.011Z,4.17
2023-05-20T10:03:28.662Z,4.17
2023-05-20T10:07:40.959Z,4.17
2023-05-20T10:09:31.497Z,4.17
2023-05-20T10:13:33.298Z,4.17
2023-05-20T10:15:34.957Z,4.17
2023-05-20T10:17:35.419Z,4.17
2023-05-20T10:19:36.640Z,4.17
2023-05-20T10:25:41.069Z,4.16
2023-05-20T10:27:42.800Z,4.17
2023-05-20T10:31:44.929Z,4.17
2023-05-20T10:35:47.432Z,4.17
2023-05-20T10:37:48.446Z,4.17
2023-05-20T10:41:51.896Z,4.16
2023-05-20T10:45:54.279Z,4.16
2023-05-20T10:47:55.157Z,4.16
2023-05-20T10:51:58.459Z,4.16
2023-05-20T10:56:01.546Z,4.16
2023-05-20T10:58:03.151Z,4.16
2023-05-20T11:02:06.589Z,4.16
2023-05-20T11:08:20.431Z,4.16
2023-05-20T11:14:13.309Z,4.16
2023-05-20T11:18:18.628Z,4.16
2023-05-20T11:24:20.743Z,4.16
2023-05-20T11:28:23.261Z,4.16
2023-05-20T11:30:24.374Z,4.16
2023-05-20T11:34:27.824Z,4.16
2023-05-20T11:40:35.797Z,4.16
2023-05-20T11:46:36.985Z,4.16
2023-05-20T11:56:45.147Z,4.15
2023-05-20T12:00:51.613Z,4.15
2023-05-20T12:02:50.330Z,4.15
2023-05-20T12:06:52.705Z,4.15
2023-05-20T12:10:56.382Z,4.15
2023-05-20T12:12:57.506Z,4.15
2023-05-20T12:17:01.222Z,4.15
2023-05-20T12:23:04.403Z,4.15
2023-05-20T12:29:08.745Z,4.15
2023-05-20T12:33:11.772Z,4.14
2023-05-20T12:39:16.312Z,4.15
2023-05-20T12:43:28.912Z,4.14
2023-05-20T12:45:19.680Z,4.14
2023-05-20T12:49:22.167Z,4.14
2023-05-20T12:53:25.243Z,4.14
2023-05-20T12:55:26.412Z,4.14
2023-05-20T12:59:29.141Z,4.14
2023-05-20T13:05:34.958Z,4.14
2023-05-20T13:10:20.980Z,4.14
2023-05-20T13:16:24.767Z,4.14
2023-05-20T13:20:27.892Z,4.14
2023-05-20T13:22:29.500Z,4.14
2023-05-20T13:26:31.611Z,4.14
2023-05-20T13:30:34.481Z,4.14
2023-05-20T13:32:45.122Z,4.14
2023-05-20T13:36:37.124Z,4.14
2023-05-20T13:42:39.874Z,4.14
2023-05-20T13:46:42.433Z,4.14
2023-05-20T13:48:43.291Z,4.13
2023-05-20T13:52:45.849Z,4.13
2023-05-20T13:58:50.606Z,4.13
2023-05-20T14:04:54.162Z,4.13
2023-05-20T14:08:55.873Z,4.13
2023-05-20T14:15:09.324Z,4.13
2023-05-20T14:19:00.940Z,4.13
2023-05-20T14:21:01.946Z,4.13
2023-05-20T14:25:05.143Z,4.13
2023-05-20T14:29:07.677Z,4.13
2023-05-20T14:31:09.752Z,4.13
2023-05-20T14:35:11.447Z,4.13
2023-05-20T14:41:17.568Z,4.13
2023-05-20T14:47:28.726Z,4.12
2023-05-20T14:51:24.181Z,4.12
2023-05-20T14:57:28.009Z,4.12
2023-05-20T15:01:30.953Z,4.12
2023-05-20T15:03:32.431Z,4.12
2023-05-20T15:07:35.500Z,4.13
2023-05-20T15:11:46.037Z,4.12
2023-05-20T15:13:40.458Z,4.12
2023-05-20T15:17:42.089Z,4.12
2023-05-20T15:21:43.924Z,4.12
2023-05-20T15:23:45.900Z,4.12
2023-05-20T15:27:48.682Z,4.12
2023-05-20T15:29:50.781Z,4.12
2023-05-20T15:31:51.654Z,4.12
2023-05-20T15:33:53.446Z,4.12
2023-05-20T15:39:58.122Z,4.12
2023-05-20T15:41:59.604Z,4.12
2023-05-20T15:46:01.921Z,4.12
2023-05-20T15:50:03.991Z,4.13
2023-05-20T15:56:07.396Z,4.13
2023-05-20T16:00:09.725Z,4.13
2023-05-20T16:06:13.764Z,4.13
2023-05-20T16:10:16.201Z,4.14
2023-05-20T16:12:17.517Z,4.14
2023-05-20T16:16:20.281Z,4.13
2023-05-20T16:22:24.778Z,4.14
2023-05-20T16:28:28.934Z,4.14
2023-05-20T16:32:31.341Z,4.13
2023-05-20T16:38:34.785Z,4.14
2023-05-20T16:42:37.681Z,4.13
2023-05-20T16:44:38.992Z,4.14
2023-05-20T16:48:49.324Z,4.14
2023-05-20T16:52:43.958Z,4.13
2023-05-20T16:54:45.628Z,4.13
2023-05-20T16:58:48.522Z,4.13
2023-05-20T17:02:50.514Z,4.13
2023-05-20T17:04:51.407Z,4.13
2023-05-20T17:08:53.863Z,4.13
2023-05-20T17:10:54.730Z,4.13
2023-05-20T17:12:56.075Z,4.13
2023-05-20T17:14:57.087Z,4.13
2023-05-20T17:21:01.954Z,4.13
2023-05-20T17:23:03.052Z,4.13
2023-05-20T17:27:06.291Z,4.13
2023-05-20T17:31:09.135Z,4.13
2023-05-20T17:37:14.204Z,4.13
2023-05-20T17:41:17.104Z,4.13
2023-05-20T17:47:20.107Z,4.12
2023-05-20T17:51:22.494Z,4.13
2023-05-20T17:53:24.191Z,4.13
2023-05-20T17:57:27.080Z,4.12
2023-05-20T18:03:31.251Z,4.12
2023-05-20T18:09:34.020Z,4.12
2023-05-20T18:13:36.247Z,4.12
2023-05-20T18:19:40.259Z,4.12
2023-05-20T18:23:42.824Z,4.12
2023-05-20T18:25:43.993Z,4.12
2023-05-20T18:29:46.832Z,4.12
2023-05-20T18:33:49.445Z,4.12
2023-05-20T18:35:50.609Z,4.12
2023-05-20T18:39:53.174Z,4.12
2023-05-20T18:45:56.754Z,4.12
2023-05-20T18:52:00.927Z,4.11
2023-05-20T18:56:03.650Z,4.11
2023-05-20T19:02:17.336Z,4.11
2023-05-20T19:06:10.887Z,4.11
2023-05-20T19:08:12.781Z,4.11
2023-05-20T19:12:15.181Z,4.11
2023-05-20T19:16:17.957Z,4.11
2023-05-20T19:18:19.287Z,4.11
2023-05-20T19:22:21.407Z,4.11
2023-05-20T19:26:23.514Z,4.11
2023-05-20T19:28:25.038Z,4.11
2023-05-20T19:32:27.664Z,4.1
2023-05-20T19:34:28.650Z,4.11
2023-05-20T19:36:30.118Z,4.1
2023-05-20T19:38:31.512Z,4.1
2023-05-20T19:44:34.708Z,4.1
2023-05-20T19:50:38.474Z,4.1
2023-05-20T19:53:23.217Z,4.1
2023-05-20T19:55:24.588Z,4.1
2023-05-20T19:59:28.200Z,4.1
2023-05-20T20:01:29.291Z,4.1
2023-05-20T20:05:31.536Z,4.1
2023-05-20T20:09:34.305Z,4.1
2023-05-20T20:11:35.999Z,4.1
2023-05-20T20:15:39.368Z,4.1
2023-05-20T20:21:44.609Z,4.1
2023-05-20T20:27:49.443Z,4.1
2023-05-20T20:31:52.008Z,4.1
2023-05-20T20:37:56.087Z,4.1
2023-05-20T20:39:57.907Z,4.1
2023-05-20T20:44:00.389Z,4.1
2023-05-20T20:48:02.846Z,4.1
2023-05-20T20:52:05.671Z,4.1
2023-05-20T20:54:07.510Z,4.09
2023-05-20T20:58:11.102Z,4.09
2023-05-20T21:04:14.925Z,4.09
2023-05-20T21:10:19.185Z,4.09
2023-05-20T21:14:21.727Z,4.09
2023-05-20T21:20:26.381Z,4.09
2023-05-20T21:24:29.872Z,4.09
2023-05-20T21:26:30.913Z,4.09
2023-05-20T21:30:33.282Z,4.09
2023-05-20T21:34:36.056Z,4.09
2023-05-20T21:36:37.120Z,4.09
2023-05-20T21:40:40.196Z,4.09
2023-05-20T21:44:42.561Z,4.09
2023-05-20T21:46:44.227Z,4.08
2023-05-20T21:50:46.297Z,4.08
2023-05-20T21:52:47.614Z,4.09
2023-05-20T21:56:50.810Z,4.08
2023-05-20T22:02:54.515Z,4.08
2023-05-20T22:08:58.604Z,4.08
2023-05-20T22:13:00.832Z,4.08
2023-05-20T22:19:05.523Z,4.08
2023-05-20T22:25:10.152Z,4.08
2023-05-20T22:29:12.694Z,4.08
2023-05-20T22:33:15.823Z,4.08
2023-05-20T22:35:17.326Z,4.08
2023-05-20T22:39:20.314Z,4.08
2023-05-20T22:45:23.039Z,4.08
2023-05-20T22:51:26.800Z,4.08
2023-05-20T22:55:29.454Z,4.08
2023-05-20T23:01:33.842Z,4.08
2023-05-20T23:05:36.934Z,4.08
2023-05-20T23:07:38.298Z,4.07
2023-05-20T23:11:40.473Z,4.07
2023-05-20T23:15:42.685Z,4.08
2023-05-20T23:17:43.683Z,4.07
2023-05-20T23:21:46.602Z,4.08
2023-05-20T23:25:49.288Z,4.07
2023-05-20T23:27:50.863Z,4.07
2023-05-20T23:31:53.159Z,4.07
2023-05-20T23:33:54.953Z,4.07
2023-05-20T23:35:56.236Z,4.07
2023-05-20T23:37:57.616Z,4.07
2023-05-20T23:44:01.489Z,4.07
2023-05-20T23:46:02.990Z,4.07
2023-05-20T23:50:05.669Z,4.07
2023-05-20T23:54:08.232Z,4.07
